Time;durP1;ratioP1;P1;durP2;ratioP2;P2;SDS_P1;SDS_P2;PMS_P1;PMS_P2;Temp;Humidity;BMP_temperature;BMP_pressure;BME280_temperature;BME280_humidity;BME280_pressure;Samples;Min_cycle;Max_cycle;Signal;HPM_P1;HPM_P2
2021/08/12 00:00:45;;;;;;;13.37;10.90;;;20.20;99.90;;;;;;4944766;29;20515;-85
2021/08/12 00:03:12;;;;;;;13.10;11.70;;;20.20;99.90;;;;;;4944701;29;20461;-85
2021/08/12 00:05:39;;;;;;;12.67;10.80;;;20.30;99.90;;;;;;4945703;29;20484;-85
2021/08/12 00:08:06;;;;;;;14.80;11.07;;;20.30;99.90;;;;;;4946534;29;20453;-85
2021/08/12 00:10:33;;;;;;;13.10;11.07;;;20.20;99.90;;;;;;4948170;29;20919;-85
2021/08/12 00:13:00;;;;;;;12.40;11.20;;;20.20;99.90;;;;;;4946959;29;20452;-85
2021/08/12 00:15:26;;;;;;;11.27;9.93;;;20.10;99.90;;;;;;4946243;29;20472;-85
2021/08/12 00:17:55;;;;;;;12.13;10.40;;;20.10;99.90;;;;;;4946609;29;20454;-85
2021/08/12 00:20:21;;;;;;;13.33;10.43;;;20.10;99.90;;;;;;4952486;29;20488;-85
2021/08/12 00:22:48;;;;;;;13.90;10.93;;;20.00;99.90;;;;;;4948741;29;20518;-85
2021/08/12 00:25:15;;;;;;;12.67;11.20;;;19.90;99.90;;;;;;4946645;29;20490;-85
2021/08/12 00:27:42;;;;;;;12.80;11.50;;;19.80;99.90;;;;;;4945726;29;20836;-85
2021/08/12 00:30:10;;;;;;;12.70;10.53;;;19.80;99.90;;;;;;4946498;29;20969;-85
2021/08/12 00:32:37;;;;;;;15.83;11.33;;;19.80;99.90;;;;;;4947664;29;20458;-85
2021/08/12 00:35:06;;;;;;;12.73;10.90;;;19.80;99.90;;;;;;4946137;29;20477;-85
2021/08/12 00:37:33;;;;;;;13.03;11.20;;;19.80;99.90;;;;;;4947856;29;20454;-84
2021/08/12 00:40:00;;;;;;;13.47;10.50;;;19.70;99.90;;;;;;4946495;29;20488;-84
2021/08/12 00:42:26;;;;;;;12.27;10.87;;;19.70;99.90;;;;;;4945605;29;20448;-84
2021/08/12 00:44:53;;;;;;;11.53;9.73;;;19.60;99.90;;;;;;4949429;29;20471;-84
2021/08/12 00:47:20;;;;;;;13.87;12.20;;;19.60;99.90;;;;;;4945986;29;20456;-84
2021/08/12 00:49:47;;;;;;;12.90;11.57;;;19.60;99.90;;;;;;4966330;23;20498;-81
2021/08/12 00:52:15;;;;;;;13.17;10.57;;;19.60;99.90;;;;;;4976202;28;20453;-82
2021/08/12 00:54:43;;;;;;;12.37;11.17;;;19.60;99.90;;;;;;4974844;28;20532;-82
2021/08/12 00:57:11;;;;;;;13.60;10.97;;;19.50;99.90;;;;;;4958993;29;20454;-82
2021/08/12 00:59:39;;;;;;;11.83;10.60;;;19.40;99.90;;;;;;4953208;29;20474;-82
2021/08/12 01:02:07;;;;;;;13.67;11.00;;;19.40;99.90;;;;;;4939548;29;20451;-81
2021/08/12 01:04:34;;;;;;;13.30;10.80;;;19.40;99.90;;;;;;4961808;29;20458;-82
2021/08/12 01:07:06;;;;;;;13.33;10.67;;;19.30;99.90;;;;;;4958685;29;20524;-81
2021/08/12 01:09:43;;;;;;;12.23;10.93;;;19.40;99.90;;;;;;4958510;28;20988;-81
2021/08/12 01:12:17;;;;;;;11.77;10.57;;;19.50;99.90;;;;;;4958809;29;20452;-81
2021/08/12 01:14:55;;;;;;;12.17;10.80;;;19.40;99.90;;;;;;4968189;29;20453;-81
2021/08/12 01:17:35;;;;;;;13.10;11.27;;;19.30;99.90;;;;;;4975883;29;20485;-81
2021/08/12 01:20:27;;;;;;;12.10;10.90;;;19.30;99.90;;;;;;4974696;28;20487;-81
2021/08/12 01:22:56;;;;;;;12.00;10.97;;;19.30;99.90;;;;;;4964048;28;20457;-82
2021/08/12 01:25:26;;;;;;;13.60;10.23;;;19.30;99.90;;;;;;4959436;29;20450;-81
2021/08/12 01:27:55;;;;;;;12.80;10.70;;;19.20;99.90;;;;;;4957028;29;20550;-82
2021/08/12 01:30:25;;;;;;;17.33;11.60;;;19.10;99.90;;;;;;4958715;28;20490;-81
2021/08/12 01:32:59;;;;;;;13.33;12.07;;;19.10;99.90;;;;;;4961973;29;20447;-81
2021/08/12 01:35:30;;;;;;;13.60;12.20;;;19.10;99.90;;;;;;4941874;29;20493;-89
2021/08/12 01:38:09;;;;;;;14.57;13.00;;;19.10;99.90;;;;;;4941155;29;20454;-90
2021/08/12 01:40:48;;;;;;;13.73;11.33;;;19.00;99.90;;;;;;4941160;29;20491;-91
2021/08/12 01:43:22;;;;;;;12.53;11.23;;;19.00;99.90;;;;;;4959556;29;20461;-91
2021/08/12 01:45:54;;;;;;;13.97;12.60;;;18.90;99.90;;;;;;4956235;29;20488;-90
2021/08/12 01:48:27;;;;;;;18.37;12.13;;;19.00;99.90;;;;;;4938257;29;20482;-90
2021/08/12 01:51:05;;;;;;;13.40;10.80;;;19.00;99.90;;;;;;4938405;29;20843;-90
2021/08/12 01:53:46;;;;;;;13.27;11.87;;;19.00;99.90;;;;;;4952612;29;20482;-89
2021/08/12 01:56:22;;;;;;;13.60;12.00;;;18.90;99.90;;;;;;4960278;29;20447;-89
2021/08/12 01:58:50;;;;;;;13.80;12.40;;;18.90;99.90;;;;;;4960182;29;20435;-88
2021/08/12 02:01:21;;;;;;;11.87;10.77;;;19.00;99.90;;;;;;4966295;28;20470;-88
2021/08/12 02:03:57;;;;;;;13.87;12.53;;;19.00;99.90;;;;;;4948083;29;20462;-88
2021/08/12 02:06:30;;;;;;;15.33;12.83;;;18.90;99.90;;;;;;4959767;29;20453;-89
2021/08/12 02:08:57;;;;;;;12.00;10.83;;;19.00;99.90;;;;;;4943333;29;20447;-89
2021/08/12 02:11:33;;;;;;;16.27;12.57;;;18.90;99.90;;;;;;4938649;29;20554;-89
2021/08/12 02:14:04;;;;;;;14.10;12.13;;;18.90;99.90;;;;;;4938977;29;20550;-89
2021/08/12 02:16:35;;;;;;;11.60;10.57;;;18.90;99.90;;;;;;4950632;29;20814;-90
2021/08/12 02:19:16;;;;;;;15.70;13.70;;;18.90;99.90;;;;;;4938562;29;20461;-89
2021/08/12 02:25:11;;;;;;;13.83;12.43;;;18.80;99.90;;;;;;4938020;29;20524;-90
2021/08/12 02:27:56;;;;;;;12.77;11.40;;;18.70;99.90;;;;;;4936569;29;20458;-90
2021/08/12 02:30:55;;;;;;;14.03;12.37;;;18.70;99.90;;;;;;4938957;29;20485;-91
2021/08/12 02:33:59;;;;;;;14.63;11.07;;;18.60;99.90;;;;;;4949448;29;20462;-90
2021/08/12 02:36:36;;;;;;;14.37;11.83;;;18.70;99.90;;;;;;4916718;29;20440;-90
2021/08/12 02:39:09;;;;;;;17.20;12.73;;;18.70;99.90;;;;;;4951912;28;20870;-89
2021/08/12 02:41:42;;;;;;;13.00;11.80;;;18.80;99.90;;;;;;4956410;29;20893;-90
2021/08/12 02:45:14;;;;;;;;;;;;;;;;;;;;;
2021/08/12 02:48:45;;;;;;;;;;;;;;;;;;;;;
2021/08/12 02:54:05;;;;;;;12.80;11.30;;;19.00;99.90;;;;;;4929077;29;20457;-90
2021/08/12 02:56:42;;;;;;;13.07;11.60;;;19.00;99.90;;;;;;4938445;29;20458;-90
2021/08/12 02:59:09;;;;;;;12.27;11.07;;;18.90;99.90;;;;;;4945154;29;20833;-90
2021/08/12 03:01:37;;;;;;;12.27;11.07;;;18.90;99.90;;;;;;4958224;29;20489;-90
2021/08/12 03:04:05;;;;;;;13.27;11.67;;;19.00;99.90;;;;;;4958414;28;20461;-90
2021/08/12 03:06:34;;;;;;;13.40;11.57;;;18.90;99.90;;;;;;4961400;29;20448;-90
2021/08/12 03:09:02;;;;;;;13.07;11.87;;;18.90;99.90;;;;;;4960542;29;20453;-90
2021/08/12 03:11:28;;;;;;;12.03;10.90;;;18.90;99.90;;;;;;4958516;29;20946;-90
2021/08/12 03:13:57;;;;;;;13.60;12.13;;;18.80;99.90;;;;;;4949595;29;20465;-91
2021/08/12 03:16:24;;;;;;;13.83;12.27;;;18.80;99.90;;;;;;4941846;29;20523;-91
2021/08/12 03:19:17;;;;;;;15.43;13.83;;;18.80;99.90;;;;;;4947419;29;20457;-91
2021/08/12 03:22:05;;;;;;;13.00;11.70;;;18.80;99.90;;;;;;4963440;29;20469;-90
2021/08/12 03:24:35;;;;;;;19.43;12.83;;;18.60;99.90;;;;;;4963669;29;20457;-89
2021/08/12 03:27:03;;;;;;;13.57;12.03;;;18.60;99.90;;;;;;4968060;28;20449;-89
2021/08/12 03:29:31;;;;;;;13.70;12.30;;;18.50;99.90;;;;;;4982787;28;20532;-91
2021/08/12 03:31:58;;;;;;;15.77;12.43;;;18.50;99.90;;;;;;4982963;28;20441;-87
2021/08/12 03:34:25;;;;;;;13.27;12.07;;;18.40;99.90;;;;;;4983020;28;20449;-89
2021/08/12 03:36:52;;;;;;;13.73;12.30;;;18.40;99.90;;;;;;4979853;28;20512;-91
2021/08/12 03:39:18;;;;;;;13.63;12.23;;;18.40;99.90;;;;;;4981578;28;20440;-90
2021/08/12 03:41:45;;;;;;;12.77;11.10;;;18.40;99.90;;;;;;4980733;29;20465;-91
2021/08/12 03:44:12;;;;;;;14.20;12.63;;;18.40;99.90;;;;;;4980757;28;20461;-88
2021/08/12 03:46:40;;;;;;;11.80;10.70;;;18.40;99.90;;;;;;4968778;29;20448;-91
2021/08/12 03:49:07;;;;;;;14.50;11.57;;;18.30;99.90;;;;;;4963273;29;20962;-90
2021/08/12 03:51:33;;;;;;;12.93;10.90;;;18.30;99.90;;;;;;4961925;29;20457;-91
2021/08/12 03:54:00;;;;;;;15.30;13.27;;;18.20;99.90;;;;;;4950880;29;20450;-91
2021/08/12 03:56:27;;;;;;;13.13;11.80;;;18.20;99.90;;;;;;4942667;29;20477;-89
2021/08/12 03:58:54;;;;;;;12.60;11.60;;;18.20;99.90;;;;;;4942070;29;20442;-90
2021/08/12 04:01:21;;;;;;;11.53;10.40;;;18.20;99.90;;;;;;4941913;29;20481;-90
2021/08/12 04:03:49;;;;;;;11.70;10.50;;;18.20;99.90;;;;;;4941697;29;20459;-90
2021/08/12 04:06:16;;;;;;;10.03;9.13;;;18.20;99.90;;;;;;4942585;29;20440;-91
2021/08/12 04:08:43;;;;;;;14.33;10.30;;;18.30;99.90;;;;;;4941693;29;20470;-91
2021/08/12 04:11:10;;;;;;;10.47;9.53;;;18.30;99.90;;;;;;4942555;29;20473;-91
2021/08/12 04:13:37;;;;;;;10.17;9.07;;;18.30;99.90;;;;;;4941636;29;21007;-90
2021/08/12 04:16:04;;;;;;;12.13;10.53;;;18.30;99.90;;;;;;4942328;29;20782;-91
2021/08/12 04:18:31;;;;;;;17.60;11.57;;;18.30;99.90;;;;;;4940561;29;20449;-90
2021/08/12 04:20:59;;;;;;;11.13;10.13;;;18.30;99.90;;;;;;4942761;29;20489;-91
2021/08/12 04:23:26;;;;;;;14.93;11.10;;;18.20;99.90;;;;;;4969897;29;20441;-89
2021/08/12 04:25:53;;;;;;;12.50;11.30;;;18.20;99.90;;;;;;4980141;28;20468;-89
2021/08/12 04:28:20;;;;;;;12.70;11.50;;;18.20;99.90;;;;;;4969364;28;20446;-92
2021/08/12 04:30:48;;;;;;;12.43;11.13;;;18.20;99.90;;;;;;4971104;29;20454;-88
2021/08/12 04:33:18;;;;;;;16.10;11.17;;;18.20;99.90;;;;;;4976387;28;20459;-86
2021/08/12 04:35:45;;;;;;;13.30;10.90;;;18.20;99.90;;;;;;4956784;28;20465;-85
2021/08/12 04:38:13;;;;;;;14.17;10.67;;;18.20;99.90;;;;;;4943421;29;20737;-87
2021/08/12 04:40:40;;;;;;;13.57;11.33;;;18.30;99.90;;;;;;4944052;29;20833;-86
2021/08/12 04:43:07;;;;;;;14.93;12.67;;;18.30;99.90;;;;;;4950408;29;20460;-87
2021/08/12 04:45:34;;;;;;;16.37;12.67;;;18.30;99.90;;;;;;4945740;29;20434;-87
2021/08/12 04:48:02;;;;;;;15.53;12.87;;;18.40;99.90;;;;;;4954082;29;20465;-87
2021/08/12 04:50:30;;;;;;;16.83;13.43;;;18.40;99.90;;;;;;4939775;29;20538;-86
2021/08/12 04:52:57;;;;;;;13.27;12.03;;;18.40;99.90;;;;;;4938500;29;20463;-87
2021/08/12 04:55:25;;;;;;;17.83;13.63;;;18.50;99.90;;;;;;4939191;29;20481;-87
2021/08/12 04:57:52;;;;;;;15.80;12.37;;;18.50;99.90;;;;;;4937858;29;20445;-87
2021/08/12 05:00:19;;;;;;;16.93;13.50;;;18.60;99.90;;;;;;4937843;29;20484;-86
2021/08/12 05:02:46;;;;;;;14.90;12.30;;;18.90;99.90;;;;;;4951464;29;20492;-86
2021/08/12 05:05:13;;;;;;;14.53;13.03;;;19.20;99.90;;;;;;4958133;29;20461;-86
2021/08/12 05:07:40;;;;;;;15.00;12.90;;;19.50;99.90;;;;;;4959907;29;20438;-87
2021/08/12 05:10:08;;;;;;;13.53;12.13;;;19.90;99.90;;;;;;4957415;28;20850;-87
2021/08/12 05:12:36;;;;;;;18.73;14.43;;;20.30;99.90;;;;;;4957551;29;20460;-87
2021/08/12 05:15:04;;;;;;;15.97;13.33;;;20.70;99.90;;;;;;4957640;29;20433;-87
2021/08/12 05:17:31;;;;;;;15.23;13.30;;;20.80;99.90;;;;;;4973747;29;20527;-86
2021/08/12 05:19:59;;;;;;;15.20;13.70;;;20.90;99.90;;;;;;4959863;28;20504;-87
2021/08/12 05:22:26;;;;;;;14.53;12.97;;;20.70;99.90;;;;;;4957253;28;20560;-87
2021/08/12 05:24:53;;;;;;;14.13;12.50;;;20.70;99.90;;;;;;4957069;28;20523;-86
2021/08/12 05:27:21;;;;;;;15.67;13.33;;;20.60;99.90;;;;;;4961454;28;20456;-86
2021/08/12 05:29:50;;;;;;;13.60;12.30;;;20.40;99.90;;;;;;4957356;28;20483;-87
2021/08/12 05:32:18;;;;;;;15.90;14.00;;;20.30;99.90;;;;;;4956549;29;20461;-87
2021/08/12 05:34:45;;;;;;;14.53;12.67;;;20.20;99.90;;;;;;4957346;29;20456;-87
2021/08/12 05:37:12;;;;;;;15.87;12.57;;;20.10;99.90;;;;;;4956811;29;20468;-87
2021/08/12 05:39:41;;;;;;;14.67;12.40;;;20.00;99.90;;;;;;4966340;28;20523;-87
2021/08/12 05:42:27;;;;;;;16.37;12.33;;;19.90;99.90;;;;;;4960151;29;20484;-89
2021/08/12 05:44:55;;;;;;;19.60;12.03;;;19.90;99.90;;;;;;4960855;29;20452;-83
2021/08/12 05:47:21;;;;;;;21.43;12.57;;;19.90;99.90;;;;;;4949514;29;20497;-85
2021/08/12 05:49:48;;;;;;;12.00;10.80;;;20.10;99.90;;;;;;4941509;29;20876;-84
2021/08/12 05:52:42;;;;;;;12.27;11.10;;;20.40;99.90;;;;;;4945758;29;20462;-85
2021/08/12 05:55:09;;;;;;;12.90;10.90;;;20.90;99.90;;;;;;4922484;29;20505;-84
2021/08/12 05:57:36;;;;;;;13.33;10.60;;;21.40;99.90;;;;;;4952133;29;20431;-83
2021/08/12 06:00:06;;;;;;;16.97;11.33;;;21.60;99.90;;;;;;4944889;29;20681;-86
2021/08/12 06:02:33;;;;;;;11.60;10.40;;;21.70;99.90;;;;;;4939731;29;20487;-86
2021/08/12 06:05:00;;;;;;;15.33;11.17;;;21.80;99.90;;;;;;4936151;29;20883;-85
2021/08/12 06:07:26;;;;;;;14.67;12.90;;;21.70;99.90;;;;;;4936566;29;20508;-86
2021/08/12 06:09:54;;;;;;;13.10;11.03;;;21.50;99.90;;;;;;4936416;29;20833;-85
2021/08/12 06:12:20;;;;;;;13.97;12.00;;;21.40;99.90;;;;;;4938402;29;20484;-85
2021/08/12 06:14:47;;;;;;;13.47;11.53;;;21.10;99.90;;;;;;4955545;29;20433;-86
2021/08/12 06:17:16;;;;;;;15.13;11.10;;;20.90;99.90;;;;;;4955690;29;20453;-85
2021/08/12 06:19:43;;;;;;;12.13;10.93;;;20.90;99.90;;;;;;4955697;28;20532;-86
2021/08/12 06:22:09;;;;;;;11.47;10.20;;;20.90;99.90;;;;;;4958992;29;20484;-86
2021/08/12 06:24:37;;;;;;;15.57;11.60;;;21.10;99.90;;;;;;4956194;29;20453;-86
2021/08/12 06:27:04;;;;;;;10.40;9.40;;;21.60;99.90;;;;;;4955582;29;20485;-86
2021/08/12 06:29:31;;;;;;;12.40;9.90;;;22.10;99.90;;;;;;4952331;28;20471;-86
2021/08/12 06:31:58;;;;;;;11.30;10.20;;;22.30;99.90;;;;;;4948633;29;20456;-85
2021/08/12 06:34:26;;;;;;;12.50;11.40;;;22.70;99.90;;;;;;4937519;29;20471;-85
2021/08/12 06:36:53;;;;;;;10.63;9.57;;;23.40;99.90;;;;;;4937069;29;20457;-85
2021/08/12 06:39:20;;;;;;;11.90;10.60;;;24.00;99.90;;;;;;4936552;29;20462;-86
2021/08/12 06:41:47;;;;;;;15.53;10.47;;;24.30;99.90;;;;;;4940085;29;20473;-86
2021/08/12 06:44:14;;;;;;;11.33;9.93;;;24.60;99.40;;;;;;4940455;29;20517;-86
2021/08/12 06:46:45;;;;;;;9.73;8.83;;;24.70;99.60;;;;;;4940606;29;20484;-86
2021/08/12 06:49:12;;;;;;;11.53;8.80;;;25.00;98.70;;;;;;4940288;29;20472;-86
2021/08/12 06:51:41;;;;;;;12.17;10.90;;;25.50;97.60;;;;;;4946687;29;20462;-86
2021/08/12 06:54:08;;;;;;;10.73;9.73;;;26.10;96.50;;;;;;4960262;29;20462;-86
2021/08/12 06:56:38;;;;;;;11.90;10.03;;;26.70;95.20;;;;;;4960428;29;20526;-86
2021/08/12 06:59:07;;;;;;;12.27;9.57;;;27.50;94.10;;;;;;4941979;29;20454;-87
2021/08/12 07:01:35;;;;;;;9.93;8.97;;;28.30;91.70;;;;;;4940773;29;20544;-87
2021/08/12 07:04:02;;;;;;;10.33;9.53;;;28.60;90.60;;;;;;4940666;29;20999;-86
2021/08/12 07:06:31;;;;;;;10.00;9.10;;;29.50;87.70;;;;;;4943216;29;20462;-86
2021/08/12 07:09:01;;;;;;;9.47;8.67;;;29.90;85.20;;;;;;4945410;29;20950;-86
2021/08/12 07:11:27;;;;;;;10.43;9.53;;;29.80;84.00;;;;;;4940605;29;20464;-86
2021/08/12 07:14:03;;;;;;;9.30;8.40;;;29.50;83.30;;;;;;4940331;29;20969;-86
2021/08/12 07:16:30;;;;;;;12.93;9.70;;;28.60;85.50;;;;;;4940531;29;20453;-86
2021/08/12 07:19:01;;;;;;;10.20;9.20;;;28.60;86.20;;;;;;4940472;29;20580;-86
2021/08/12 07:21:28;;;;;;;14.23;9.67;;;28.70;85.40;;;;;;4947570;29;20461;-87
2021/08/12 07:23:55;;;;;;;13.83;9.83;;;29.30;84.10;;;;;;4950624;29;20460;-87
2021/08/12 07:26:23;;;;;;;10.83;8.77;;;29.90;81.80;;;;;;4957570;29;20536;-87
2021/08/12 07:28:50;;;;;;;9.30;8.30;;;30.00;79.50;;;;;;4962694;29;20476;-87
2021/08/12 07:31:18;;;;;;;10.27;9.10;;;30.00;79.10;;;;;;4967438;28;20477;-87
2021/08/12 07:33:45;;;;;;;9.20;8.50;;;30.10;79.60;;;;;;4963617;28;20455;-87
2021/08/12 07:36:12;;;;;;;8.70;8.00;;;30.80;77.00;;;;;;4959122;29;20535;-87
2021/08/12 07:38:39;;;;;;;8.63;7.83;;;31.10;76.50;;;;;;4960062;28;20469;-87
2021/08/12 07:41:08;;;;;;;12.13;9.30;;;31.60;74.40;;;;;;4959754;28;20477;-87
2021/08/12 07:43:38;;;;;;;9.17;8.27;;;31.80;72.60;;;;;;4958669;28;20488;-87
2021/08/12 07:46:05;;;;;;;8.47;7.77;;;32.10;72.00;;;;;;4943289;29;20454;-86
2021/08/12 07:48:32;;;;;;;11.53;8.90;;;32.30;70.80;;;;;;4957453;29;20429;-87
2021/08/12 07:50:59;;;;;;;12.00;9.03;;;32.80;69.40;;;;;;4961928;29;20480;-86
2021/08/12 07:53:26;;;;;;;9.53;8.50;;;33.70;66.90;;;;;;4945403;29;20446;-86
2021/08/12 07:55:56;;;;;;;8.97;7.70;;;33.70;65.40;;;;;;4959842;29;20477;-88
2021/08/12 07:58:23;;;;;;;8.60;7.80;;;33.60;64.70;;;;;;4960201;29;20461;-87
2021/08/12 08:00:51;;;;;;;7.30;6.60;;;33.80;62.60;;;;;;4949599;29;20516;-86
2021/08/12 08:03:18;;;;;;;9.60;8.70;;;33.70;63.10;;;;;;4943686;29;20477;-86
2021/08/12 08:05:47;;;;;;;9.10;8.30;;;33.90;61.90;;;;;;4941331;29;20468;-87
2021/08/12 08:08:14;;;;;;;8.57;7.80;;;34.00;61.10;;;;;;4942106;29;20485;-87
2021/08/12 08:10:42;;;;;;;9.97;9.10;;;34.20;60.90;;;;;;4941236;29;20997;-87
2021/08/12 08:13:09;;;;;;;9.20;7.50;;;34.80;58.90;;;;;;4939582;29;20456;-85
2021/08/12 08:15:36;;;;;;;8.97;8.20;;;35.50;58.70;;;;;;4939557;29;20491;-85
2021/08/12 08:18:06;;;;;;;9.80;9.00;;;35.20;57.60;;;;;;4940378;29;20460;-86
2021/08/12 08:23:52;;;;;;;8.80;8.03;;;34.50;57.60;;;;;;4938745;29;20477;-86
2021/08/12 08:27:12;;;;;;;7.70;7.10;;;35.10;58.10;;;;;;4951005;29;20517;-87
2021/08/12 08:30:20;;;;;;;;;;;;;;;;;;;;;
2021/08/12 08:33:11;;;;;;;9.47;7.97;;;35.80;54.80;;;;;;4945384;29;20433;-87
2021/08/12 08:39:17;;;;;;;8.10;7.30;;;37.30;53.20;;;;;;4920784;29;20428;-87
2021/08/12 08:42:00;;;;;;;6.77;6.10;;;37.40;52.30;;;;;;4940189;28;20465;-87
2021/08/12 08:47:49;;;;;;;8.70;7.50;;;37.30;52.10;;;;;;4977754;28;20448;-86
2021/08/12 08:50:40;;;;;;;6.97;6.27;;;38.60;50.00;;;;;;4966656;29;20468;-87
2021/08/12 08:57:32;;;;;;;;;;;;;;;;;;;;;
2021/08/12 09:03:32;;;;;;;7.53;6.90;;;36.90;52.30;;;;;;4886893;29;20496;-88
2021/08/12 09:05:59;;;;;;;7.47;6.77;;;36.60;52.30;;;;;;4960793;23;20514;-87
2021/08/12 09:08:25;;;;;;;7.80;7.10;;;37.10;51.80;;;;;;4978462;28;20432;-86
2021/08/12 09:10:52;;;;;;;8.10;7.50;;;37.50;50.40;;;;;;4989335;28;20446;-86
2021/08/12 09:13:19;;;;;;;7.00;6.40;;;37.80;50.20;;;;;;4980812;28;20455;-87
2021/08/12 09:15:46;;;;;;;7.00;6.40;;;38.10;50.40;;;;;;4963414;28;20480;-87
2021/08/12 09:18:21;;;;;;;7.60;6.90;;;38.90;49.30;;;;;;4962519;28;20458;-85
2021/08/12 09:20:51;;;;;;;8.20;7.40;;;38.70;48.70;;;;;;4955463;28;20842;-86
2021/08/12 09:23:23;;;;;;;7.03;6.33;;;38.60;48.60;;;;;;4955849;28;20496;-86
2021/08/12 09:25:50;;;;;;;8.30;7.43;;;38.70;49.10;;;;;;4956098;28;20536;-86
2021/08/12 09:28:20;;;;;;;7.80;7.10;;;37.80;50.40;;;;;;4957891;29;20445;-87
2021/08/12 09:31:08;;;;;;;7.20;6.60;;;38.40;49.40;;;;;;4972311;29;20444;-90
2021/08/12 09:33:41;;;;;;;7.30;6.70;;;39.20;48.80;;;;;;4956668;29;20526;-90
2021/08/12 09:36:25;;;;;;;7.57;6.83;;;40.30;47.00;;;;;;4955243;28;20461;-89
2021/08/12 09:39:15;;;;;;;11.67;7.30;;;40.80;45.10;;;;;;4948856;28;20449;-89
2021/08/12 09:41:45;;;;;;;8.03;7.10;;;40.10;45.70;;;;;;4954246;28;20448;-90
2021/08/12 09:44:31;;;;;;;7.70;7.10;;;39.50;47.30;;;;;;4955876;29;20500;-89
2021/08/12 09:46:59;;;;;;;7.20;6.60;;;39.30;47.90;;;;;;4970913;28;20463;-90
2021/08/12 09:49:28;;;;;;;8.50;6.70;;;38.20;49.50;;;;;;4955735;29;20463;-90
2021/08/12 09:51:56;;;;;;;8.87;7.80;;;37.80;50.20;;;;;;4962175;28;20448;-90
2021/08/12 09:54:30;;;;;;;8.50;7.80;;;38.50;49.80;;;;;;4958826;29;20440;-90
2021/08/12 09:56:56;;;;;;;7.40;6.63;;;39.30;48.50;;;;;;4976991;28;20427;-90
2021/08/12 09:59:23;;;;;;;8.17;7.40;;;39.30;47.90;;;;;;4979661;28;20433;-90
2021/08/12 10:02:12;;;;;;;7.13;6.43;;;39.40;48.20;;;;;;4979386;28;20461;-89
2021/08/12 10:04:39;;;;;;;8.00;7.30;;;39.90;48.70;;;;;;4961679;28;20491;-90
2021/08/12 10:07:07;;;;;;;7.40;6.77;;;40.00;48.10;;;;;;4957609;28;20453;-90
2021/08/12 10:09:40;;;;;;;7.97;7.27;;;40.60;47.00;;;;;;4956477;28;20444;-90
2021/08/12 10:12:08;;;;;;;7.37;6.67;;;40.90;46.00;;;;;;4957623;28;20456;-90
2021/08/12 10:14:34;;;;;;;8.70;7.80;;;41.20;44.90;;;;;;4941005;29;20460;-91
2021/08/12 10:17:02;;;;;;;7.73;7.03;;;41.10;45.00;;;;;;4938201;29;20454;-90
2021/08/12 10:19:30;;;;;;;7.40;6.80;;;40.50;45.30;;;;;;4936495;29;20458;-91
2021/08/12 10:21:57;;;;;;;8.20;7.47;;;40.60;45.20;;;;;;4937084;29;20532;-90
2021/08/12 10:24:29;;;;;;;8.23;7.50;;;40.40;44.80;;;;;;4936791;29;20508;-90
2021/08/12 10:26:56;;;;;;;7.80;7.10;;;40.40;44.60;;;;;;4944477;29;20460;-90
2021/08/12 10:29:25;;;;;;;7.63;7.03;;;40.70;44.60;;;;;;4955639;29;20453;-89
2021/08/12 10:31:54;;;;;;;7.40;6.90;;;41.10;44.40;;;;;;4955528;29;20445;-90
2021/08/12 10:34:21;;;;;;;7.57;6.97;;;41.30;43.50;;;;;;4954999;28;20472;-90
2021/08/12 10:36:49;;;;;;;8.50;7.70;;;41.40;42.90;;;;;;4954959;29;20479;-90
2021/08/12 10:39:16;;;;;;;8.77;7.40;;;41.40;42.90;;;;;;4955319;29;20445;-90
2021/08/12 10:41:45;;;;;;;7.80;7.20;;;43.10;42.20;;;;;;4953992;28;20445;-90
2021/08/12 10:44:14;;;;;;;9.43;6.47;;;44.40;40.90;;;;;;4954818;29;20483;-91
2021/08/12 10:46:42;;;;;;;7.70;7.10;;;45.30;39.40;;;;;;4955666;28;20469;-90
2021/08/12 10:49:33;;;;;;;7.30;6.70;;;44.90;38.20;;;;;;4958492;28;20448;-90
2021/08/12 10:52:03;;;;;;;7.60;7.00;;;43.80;38.40;;;;;;4951048;28;20480;-91
2021/08/12 10:54:31;;;;;;;7.00;6.40;;;43.40;39.80;;;;;;4951791;29;20449;-90
2021/08/12 10:57:26;;;;;;;7.83;7.13;;;44.30;39.70;;;;;;4935061;29;20454;-90
2021/08/12 10:59:54;;;;;;;9.10;7.97;;;43.00;38.00;;;;;;4918515;28;20457;-90
2021/08/12 11:02:44;;;;;;;7.47;6.83;;;42.10;39.30;;;;;;4954388;28;20453;-90
2021/08/12 11:05:10;;;;;;;9.50;8.20;;;41.00;41.10;;;;;;4954165;28;20543;-90
2021/08/12 11:07:50;;;;;;;8.50;7.63;;;40.40;42.20;;;;;;4954111;28;20456;-90
2021/08/12 11:10:25;;;;;;;7.50;6.83;;;40.10;42.30;;;;;;4953926;28;20441;-91
2021/08/12 11:13:05;;;;;;;8.23;7.50;;;41.10;41.60;;;;;;4954009;29;20810;-90
2021/08/12 11:15:56;;;;;;;9.90;8.80;;;41.70;40.60;;;;;;4957316;28;20456;-89
2021/08/12 11:18:43;;;;;;;8.37;7.33;;;41.70;40.40;;;;;;4977134;29;20424;-90
2021/08/12 11:21:38;;;;;;;8.00;7.20;;;42.20;39.90;;;;;;4955769;29;20484;-90
2021/08/12 11:24:06;;;;;;;7.37;6.77;;;41.20;38.80;;;;;;4953908;29;20479;-91
2021/08/12 11:27:04;;;;;;;7.60;6.70;;;40.90;38.70;;;;;;4955053;28;20464;-90
2021/08/12 11:29:35;;;;;;;7.70;6.90;;;41.50;38.40;;;;;;4955287;28;20444;-91
2021/08/12 11:32:09;;;;;;;7.27;6.77;;;40.60;39.30;;;;;;4957319;29;20441;-90
2021/08/12 11:34:41;;;;;;;6.97;6.37;;;39.90;40.80;;;;;;4955214;28;20449;-90
2021/08/12 11:37:12;;;;;;;7.37;6.80;;;40.00;41.90;;;;;;4956938;29;20829;-90
2021/08/12 11:39:56;;;;;;;7.03;6.43;;;40.50;41.10;;;;;;4957570;29;20957;-91
2021/08/12 11:42:32;;;;;;;7.27;6.47;;;39.50;41.00;;;;;;4947834;29;20448;-91
2021/08/12 11:45:01;;;;;;;7.60;6.90;;;39.80;42.10;;;;;;4956753;28;20532;-91
2021/08/12 11:47:28;;;;;;;7.60;7.00;;;39.60;40.50;;;;;;4959089;28;20445;-90
2021/08/12 11:49:57;;;;;;;7.20;6.60;;;39.20;41.90;;;;;;4972968;28;20447;-90
2021/08/12 11:52:26;;;;;;;8.83;8.03;;;39.10;43.00;;;;;;4961091;28;20524;-90
2021/08/12 11:54:58;;;;;;;8.03;7.43;;;37.80;43.00;;;;;;4958919;28;20461;-91
2021/08/12 11:57:46;;;;;;;7.50;6.80;;;36.40;45.80;;;;;;4941161;29;20458;-90
2021/08/12 12:00:16;;;;;;;7.07;6.57;;;35.70;46.70;;;;;;4947451;29;20429;-90
2021/08/12 12:02:51;;;;;;;6.93;6.40;;;35.80;47.00;;;;;;4961052;29;20450;-89
2021/08/12 12:05:20;;;;;;;7.87;6.33;;;36.60;47.50;;;;;;4942671;29;20858;-87
2021/08/12 12:07:48;;;;;;;8.07;7.27;;;37.40;45.80;;;;;;4942652;29;20435;-86
2021/08/12 12:10:26;;;;;;;7.53;6.93;;;38.00;44.30;;;;;;4942716;29;20829;-88
2021/08/12 12:12:54;;;;;;;8.30;7.40;;;38.60;42.20;;;;;;4946672;29;20501;-90
2021/08/12 12:15:35;;;;;;;8.83;8.13;;;39.80;42.10;;;;;;4946974;29;20475;-89
2021/08/12 12:18:02;;;;;;;7.90;7.20;;;40.60;39.70;;;;;;4946976;29;20446;-90
2021/08/12 12:20:29;;;;;;;7.53;7.00;;;41.20;38.40;;;;;;4947973;28;20441;-90
2021/08/12 12:22:59;;;;;;;8.10;7.50;;;41.80;37.90;;;;;;4956236;28;20459;-89
2021/08/12 12:25:26;;;;;;;8.40;7.50;;;41.70;37.50;;;;;;4956052;28;20461;-90
2021/08/12 12:28:04;;;;;;;7.70;7.00;;;42.40;36.20;;;;;;4957236;28;20448;-91
2021/08/12 12:30:38;;;;;;;7.77;7.10;;;43.50;34.50;;;;;;4955603;28;20824;-92
2021/08/12 12:33:21;;;;;;;7.53;6.93;;;44.20;33.60;;;;;;4947390;28;20537;-91
2021/08/12 12:35:58;;;;;;;8.07;7.37;;;44.80;33.00;;;;;;4963496;28;20477;-92
2021/08/12 12:38:41;;;;;;;7.83;7.23;;;45.70;32.40;;;;;;4961375;28;20896;-92
2021/08/12 12:41:16;;;;;;;7.90;7.30;;;45.80;31.50;;;;;;4966094;28;20449;-92
2021/08/12 12:44:15;;;;;;;8.03;7.37;;;45.10;31.30;;;;;;4964925;28;20480;-92
2021/08/12 12:47:29;;;;;;;8.27;7.70;;;45.10;30.50;;;;;;4966724;28;20520;-92
2021/08/12 13:02:27;;;;;;;8.57;7.90;;;45.10;29.30;;;;;;4821800;29;21108;-93
2021/08/12 13:05:05;;;;;;;9.67;8.90;;;44.10;29.80;;;;;;4878161;29;20527;-91
2021/08/12 13:07:32;;;;;;;9.53;8.83;;;43.30;30.50;;;;;;4959164;28;21029;-89
2021/08/12 13:13:14;;;;;;;8.50;7.80;;;43.60;29.40;;;;;;4956535;28;20451;-91
2021/08/12 13:15:55;;;;;;;8.60;8.00;;;43.80;30.00;;;;;;4951078;28;20466;-91
2021/08/12 13:18:30;;;;;;;8.90;8.00;;;44.70;29.20;;;;;;4936252;29;20434;-92
2021/08/12 13:21:06;;;;;;;9.00;8.37;;;44.70;29.20;;;;;;4937333;29;20460;-92
2021/08/12 13:23:35;;;;;;;7.53;6.93;;;44.30;29.40;;;;;;4937580;29;20898;-91
2021/08/12 13:26:22;;;;;;;7.40;6.90;;;44.80;29.70;;;;;;4959327;29;20458;-91
2021/08/12 13:29:02;;;;;;;8.80;8.10;;;44.50;29.30;;;;;;4960141;28;20537;-91
2021/08/12 13:31:36;;;;;;;7.70;7.00;;;44.10;28.90;;;;;;4955955;28;20535;-91
2021/08/12 13:34:05;;;;;;;7.83;7.23;;;43.90;29.60;;;;;;4956146;28;20448;-92
2021/08/12 13:36:32;;;;;;;8.37;7.67;;;43.20;29.40;;;;;;4957532;28;20453;-91
2021/08/12 14:04:15;;;;;;;9.73;8.73;;;40.90;31.70;;;;;;4203602;26;20569;-90
2021/08/12 14:06:43;;;;;;;8.30;7.60;;;41.40;31.70;;;;;;4968146;28;20592;-90
2021/08/12 14:09:10;;;;;;;9.13;8.43;;;40.80;32.10;;;;;;4972677;29;20437;-91